Etusivu
METAR-TAF:

METAR-TAF

Lentoasemat :

Jönköping, Ruotsi

Leveyspiiri: 57-46N, Pituuspiiri: 014-05E, korkeus merenpinnasta: 226 m

Tämänhetkinen sää

Tämä raportti tehtiin 11 minuuttia sitten, kello 12.50 UTC
Tuuli 12 kn lännestä/lounaasta, vaihdellen lounaan ja lännen/luoteen välillä
Lämpötila 12°C
Kosteus 44%
Ilmanpaine 1029 hPa
Näkyvyys 10 km tai enemmän
ei pilviä alle 1500 m:ssä eikä cumulonimbus-pilviä

METAR: ESGJ 251250Z 25012KT 230V290 CAVOK 12/00 Q1029

Aika: 15:01 (13:01 UTC)

Sääennuste

Tämä raportti tehtiin 1 tunti ja 31 minuuttia sitten, kello 11.30 UTC
Ennuste voimassa 25. päivästä klo 12 UTC - 25. päivään klo 21 UTC
Tuuli 12 kn lännestä
Näkyvyys 10 km tai enemmän
ei pilviä alle 1500 m:ssä eikä cumulonimbus-pilviä

TAF: ESGJ 251130Z 2512/2521 27012KT CAVOK

Säähavainnot ja -ennusteet yli 4000 lentoasemalta (METAR- ja TAF-raportit).

Käytössä olevat sääasemat on merkitty karttaan keltaisilla ja punaisilla pisteillä.

Aseta hiiri pisteen päälle nähdäksesi sääaseman nimen.

Klikkaa sitten nähdäksesi säähavainnot ja -ennusteet.

Kartan vaihtaminen: klikkaa mustalla rastilla varustettuja vihreitä pisteitä, niin voit zoomata sisään; viivalla varustettua vihreää pistettä, niin voit zoomata ulos tai vihreitä nuolia, niin pääset viereisille kartoille.


METAR-TAF: